Time;durP1;ratioP1;P1;durP2;ratioP2;P2;SDS_P1;SDS_P2;PMS_P1;PMS_P2;Temp;Humidity;BMP_temperature;BMP_pressure;BME280_temperature;BME280_humidity;BME280_pressure;Samples;Min_cycle;Max_cycle;Signal;HPM_P1;HPM_P2
2023/01/20 00:00:16;;;;;;;3.47;2.80;;;4.20;99.90;;;;;;5070474;28;20197;-71
2023/01/20 00:02:42;;;;;;;3.47;2.20;;;4.20;99.90;;;;;;5057561;28;20198;-72
2023/01/20 00:05:08;;;;;;;2.77;2.30;;;4.10;99.90;;;;;;5054274;28;20333;-71
2023/01/20 00:07:38;;;;;;;3.17;2.37;;;4.10;99.90;;;;;;5061368;28;20461;-72
2023/01/20 00:10:04;;;;;;;3.10;2.40;;;4.20;99.90;;;;;;5057967;28;20181;-71
2023/01/20 00:12:30;;;;;;;3.20;2.63;;;4.00;99.90;;;;;;5074284;28;20284;-72
2023/01/20 00:14:56;;;;;;;3.67;2.80;;;4.00;99.90;;;;;;5074708;28;20258;-71
2023/01/20 00:17:22;;;;;;;3.47;2.50;;;4.00;99.90;;;;;;5073733;28;20253;-72
2023/01/20 00:19:49;;;;;;;3.50;2.60;;;3.90;99.90;;;;;;5057791;28;20487;-71
2023/01/20 00:22:15;;;;;;;2.93;2.20;;;3.90;99.90;;;;;;5057646;28;20227;-71
2023/01/20 00:24:40;;;;;;;3.40;2.50;;;3.90;99.90;;;;;;5057198;28;20205;-72
2023/01/20 00:27:07;;;;;;;2.87;2.60;;;3.90;99.90;;;;;;5074114;28;20189;-71
2023/01/20 00:29:32;;;;;;;3.50;2.60;;;3.90;99.90;;;;;;5069334;28;20461;-71
2023/01/20 00:31:58;;;;;;;3.33;2.50;;;3.80;99.90;;;;;;5057158;28;20295;-72
2023/01/20 00:34:26;;;;;;;3.23;2.67;;;4.00;99.90;;;;;;5057392;28;20246;-71
2023/01/20 00:36:51;;;;;;;3.87;2.73;;;3.80;99.90;;;;;;5073998;28;20209;-71
2023/01/20 00:39:17;;;;;;;3.50;2.70;;;3.80;99.90;;;;;;5073946;28;20174;-71
2023/01/20 00:41:42;;;;;;;6.33;2.73;;;3.80;99.90;;;;;;5073868;28;20188;-71
2023/01/20 00:44:08;;;;;;;3.57;2.57;;;3.80;99.90;;;;;;5056977;28;20246;-72
2023/01/20 00:46:34;;;;;;;3.70;2.70;;;3.70;99.90;;;;;;5073583;28;20177;-71
2023/01/20 00:48:59;;;;;;;4.30;2.83;;;3.70;99.90;;;;;;5073643;28;20229;-71
2023/01/20 00:51:27;;;;;;;3.23;2.63;;;3.60;99.90;;;;;;5073407;28;20177;-71
2023/01/20 00:53:53;;;;;;;4.90;2.80;;;3.70;99.90;;;;;;5073421;28;20188;-72
2023/01/20 00:56:19;;;;;;;3.80;2.90;;;3.60;99.90;;;;;;5073694;28;20189;-72
2023/01/20 00:58:44;;;;;;;4.00;2.60;;;3.60;99.90;;;;;;5073458;28;20165;-72
2023/01/20 01:01:11;;;;;;;4.10;2.90;;;3.50;99.90;;;;;;5060411;28;20177;-72
2023/01/20 01:03:37;;;;;;;3.90;2.70;;;3.50;99.90;;;;;;5073244;28;20189;-72
2023/01/20 01:06:14;;;;;;;4.13;2.87;;;3.40;99.90;;;;;;5073440;28;20173;-72
2023/01/20 01:08:41;;;;;;;4.17;3.00;;;3.40;99.90;;;;;;5073468;28;20264;-72
2023/01/20 01:11:10;;;;;;;4.80;3.67;;;3.40;99.90;;;;;;5073308;28;20185;-72
2023/01/20 01:13:37;;;;;;;5.33;3.40;;;3.30;99.90;;;;;;5056427;28;20209;-72
2023/01/20 01:16:04;;;;;;;4.93;2.90;;;3.30;99.90;;;;;;5055168;28;20178;-72
2023/01/20 01:18:29;;;;;;;3.07;2.77;;;3.20;99.90;;;;;;5056243;28;20263;-72
2023/01/20 01:20:55;;;;;;;4.37;2.97;;;3.20;99.90;;;;;;5056407;28;20201;-72
2023/01/20 01:23:21;;;;;;;3.80;2.57;;;3.10;99.90;;;;;;5073179;28;20177;-71
2023/01/20 01:25:47;;;;;;;3.70;2.80;;;3.10;99.90;;;;;;5072706;28;20204;-72
2023/01/20 01:28:12;;;;;;;4.47;3.13;;;3.00;99.90;;;;;;5072804;28;20189;-71
2023/01/20 01:30:38;;;;;;;3.53;2.60;;;3.00;99.90;;;;;;5071558;28;20231;-72
2023/01/20 01:33:06;;;;;;;3.30;2.57;;;3.00;99.90;;;;;;5082048;28;20199;-71
2023/01/20 01:35:31;;;;;;;3.70;2.80;;;2.90;99.90;;;;;;5091410;28;20208;-72
2023/01/20 01:37:57;;;;;;;3.87;2.50;;;2.90;99.90;;;;;;5068652;28;20232;-72
2023/01/20 01:40:23;;;;;;;3.40;2.70;;;2.80;99.90;;;;;;5056060;28;20174;-72
2023/01/20 01:42:48;;;;;;;4.67;2.97;;;2.80;99.90;;;;;;5072539;28;20177;-72
2023/01/20 01:45:23;;;;;;;3.60;2.73;;;2.80;99.90;;;;;;5072786;28;20197;-72
2023/01/20 01:48:08;;;;;;;4.20;2.97;;;2.80;99.90;;;;;;5072524;28;20196;-72
2023/01/20 01:50:45;;;;;;;3.40;2.50;;;2.80;99.90;;;;;;5055957;28;20205;-72
2023/01/20 01:53:13;;;;;;;4.07;2.80;;;2.70;99.90;;;;;;5056009;28;20204;-71
2023/01/20 01:55:42;;;;;;;4.17;3.20;;;2.60;99.90;;;;;;5055871;28;20182;-73
2023/01/20 01:58:13;;;;;;;3.53;2.77;;;2.60;99.90;;;;;;5055677;28;20346;-72
2023/01/20 02:00:42;;;;;;;3.57;2.77;;;2.50;99.90;;;;;;5072390;28;20224;-73
2023/01/20 02:03:08;;;;;;;4.47;3.17;;;2.60;99.90;;;;;;5072234;28;20178;-73
2023/01/20 02:05:38;;;;;;;4.50;3.03;;;2.50;99.90;;;;;;5072359;28;20327;-72
2023/01/20 02:08:09;;;;;;;4.57;3.27;;;2.50;99.90;;;;;;5072394;28;20201;-72
2023/01/20 02:10:37;;;;;;;5.13;2.90;;;2.50;99.90;;;;;;5071809;28;20196;-72
2023/01/20 02:13:04;;;;;;;3.90;2.80;;;2.50;99.90;;;;;;5052072;28;20192;-72
2023/01/20 02:16:08;;;;;;;3.20;2.63;;;2.50;99.90;;;;;;5052052;28;20181;-72
2023/01/20 02:18:57;;;;;;;3.00;2.57;;;2.50;99.90;;;;;;5053747;28;20231;-72
2023/01/20 02:21:57;;;;;;;4.27;3.20;;;2.50;99.90;;;;;;5072030;28;20227;-70
2023/01/20 02:25:04;;;;;;;3.97;2.87;;;2.50;99.90;;;;;;5054099;28;20209;-73
2023/01/20 02:27:57;;;;;;;3.33;2.67;;;2.50;99.90;;;;;;5055032;28;20207;-72
2023/01/20 02:31:08;;;;;;;3.33;2.70;;;2.50;99.90;;;;;;5053004;28;20193;-73
2023/01/20 02:33:57;;;;;;;3.67;2.97;;;2.50;99.90;;;;;;5035408;28;20432;-72
2023/01/20 02:36:35;;;;;;;3.67;2.90;;;2.50;99.90;;;;;;5056995;28;20223;-72
2023/01/20 02:39:14;;;;;;;3.50;2.63;;;2.50;99.90;;;;;;5054854;28;20202;-72
2023/01/20 02:41:52;;;;;;;4.17;2.87;;;2.40;99.90;;;;;;5054953;28;20266;-72
2023/01/20 02:44:17;;;;;;;3.43;2.67;;;2.40;99.90;;;;;;5055063;28;20180;-72
2023/01/20 02:46:52;;;;;;;3.37;2.67;;;2.40;99.90;;;;;;5054810;28;20201;-70
2023/01/20 02:49:31;;;;;;;4.33;3.23;;;2.40;99.90;;;;;;5054856;28;20176;-70
2023/01/20 02:52:04;;;;;;;4.50;3.20;;;2.50;99.90;;;;;;5054779;28;20193;-71
2023/01/20 02:54:35;;;;;;;4.20;2.93;;;2.40;99.90;;;;;;5054985;28;20192;-70
2023/01/20 02:57:05;;;;;;;4.53;3.13;;;2.50;99.90;;;;;;5070814;28;20193;-71
2023/01/20 02:59:36;;;;;;;4.67;3.20;;;2.50;99.90;;;;;;5054897;28;20173;-70
2023/01/20 03:02:14;;;;;;;5.97;3.43;;;2.60;99.90;;;;;;5054438;28;20181;-70
2023/01/20 03:04:49;;;;;;;4.87;3.50;;;2.60;99.90;;;;;;5054253;28;20188;-70
2023/01/20 03:07:15;;;;;;;4.30;3.43;;;2.60;99.90;;;;;;5048734;28;20177;-70
2023/01/20 03:09:49;;;;;;;3.93;2.87;;;2.70;99.90;;;;;;5052593;28;20232;-70
2023/01/20 03:12:17;;;;;;;4.23;3.03;;;2.70;99.90;;;;;;5054509;28;20247;-71
2023/01/20 03:14:43;;;;;;;4.67;3.20;;;2.70;99.90;;;;;;5052157;28;20213;-71
2023/01/20 03:17:09;;;;;;;4.73;3.10;;;2.70;99.90;;;;;;5070878;28;20282;-71
2023/01/20 03:19:37;;;;;;;4.50;3.47;;;2.80;99.90;;;;;;5065675;28;20260;-71
2023/01/20 03:22:02;;;;;;;4.90;3.47;;;2.80;99.90;;;;;;5070947;28;20185;-71
2023/01/20 03:24:29;;;;;;;4.93;3.37;;;2.80;99.90;;;;;;5070782;28;20306;-71
2023/01/20 03:26:55;;;;;;;3.80;3.00;;;2.80;99.90;;;;;;5057660;28;20250;-71
2023/01/20 03:29:21;;;;;;;5.10;3.07;;;2.80;99.90;;;;;;5034030;28;20248;-71
2023/01/20 03:31:58;;;;;;;4.60;3.30;;;2.90;99.90;;;;;;5042412;28;20201;-71
2023/01/20 03:34:26;;;;;;;4.60;3.10;;;2.90;99.90;;;;;;5070516;28;20177;-71
2023/01/20 03:36:53;;;;;;;4.63;3.07;;;2.90;99.90;;;;;;5062165;28;20208;-70
2023/01/20 03:39:24;;;;;;;4.33;2.63;;;2.90;99.90;;;;;;5061494;28;20233;-71
2023/01/20 03:42:12;;;;;;;4.20;3.07;;;2.90;99.90;;;;;;5054044;28;20185;-71
2023/01/20 03:44:59;;;;;;;3.60;3.00;;;2.80;99.90;;;;;;5053644;28;20274;-71
2023/01/20 03:48:09;;;;;;;4.00;3.07;;;2.80;99.90;;;;;;5049246;28;20294;-72
2023/01/20 03:50:55;;;;;;;4.00;3.00;;;2.80;99.90;;;;;;5021973;28;20241;-72
2023/01/20 03:53:23;;;;;;;3.60;2.83;;;2.80;99.90;;;;;;5058304;28;20188;-71
2023/01/20 03:56:02;;;;;;;3.73;3.00;;;2.80;99.90;;;;;;5053932;28;20296;-70
2023/01/20 03:58:38;;;;;;;3.40;2.87;;;2.80;99.90;;;;;;5051826;28;20208;-70
2023/01/20 04:01:09;;;;;;;5.03;2.97;;;2.80;99.90;;;;;;5052005;28;20207;-71
2023/01/20 04:03:41;;;;;;;4.40;3.37;;;2.90;99.90;;;;;;5055839;28;20181;-71
2023/01/20 04:06:12;;;;;;;4.57;3.43;;;2.80;99.90;;;;;;5045578;28;20182;-71
2023/01/20 04:08:46;;;;;;;3.97;3.07;;;2.80;99.90;;;;;;5051762;28;20193;-71
2023/01/20 04:11:12;;;;;;;3.83;3.13;;;2.80;99.90;;;;;;5053908;28;20177;-71
2023/01/20 04:13:38;;;;;;;4.40;3.40;;;2.70;99.90;;;;;;5053659;28;20288;-70
2023/01/20 04:16:11;;;;;;;4.23;2.90;;;2.70;99.90;;;;;;5052487;28;20217;-71
2023/01/20 04:18:40;;;;;;;3.33;2.90;;;2.70;99.90;;;;;;5053327;28;20223;-71
2023/01/20 04:21:08;;;;;;;3.97;2.77;;;2.70;99.90;;;;;;5070229;28;20177;-71
2023/01/20 04:23:52;;;;;;;4.27;2.93;;;2.60;99.90;;;;;;5070210;28;20222;-71
2023/01/20 04:26:20;;;;;;;5.53;3.20;;;2.60;99.90;;;;;;5069987;28;20173;-71
2023/01/20 04:28:48;;;;;;;3.33;2.73;;;2.60;99.90;;;;;;5070182;28;20339;-71
2023/01/20 04:31:14;;;;;;;3.70;2.73;;;2.60;99.90;;;;;;5070011;28;20205;-71
2023/01/20 04:33:40;;;;;;;4.33;2.93;;;2.60;99.90;;;;;;5068666;28;20295;-70
2023/01/20 04:36:06;;;;;;;4.40;3.23;;;2.60;99.90;;;;;;5070029;28;20292;-71
2023/01/20 04:38:31;;;;;;;4.77;3.13;;;2.60;99.90;;;;;;5069923;28;20399;-71
2023/01/20 04:40:59;;;;;;;5.07;3.80;;;2.60;99.90;;;;;;5069999;28;20208;-72
2023/01/20 04:43:29;;;;;;;5.63;3.90;;;2.60;99.90;;;;;;5052198;28;20185;-71
2023/01/20 04:45:55;;;;;;;3.60;2.90;;;2.60;99.90;;;;;;5070060;28;20208;-71
2023/01/20 04:48:21;;;;;;;4.23;3.20;;;2.70;99.90;;;;;;5053280;28;20217;-71
2023/01/20 04:50:49;;;;;;;3.40;3.00;;;2.70;99.90;;;;;;5070081;28;20181;-71
2023/01/20 04:53:18;;;;;;;3.63;3.13;;;2.70;99.90;;;;;;5073550;28;20205;-71
2023/01/20 04:55:44;;;;;;;3.83;2.97;;;2.80;99.90;;;;;;5073635;28;20188;-72
2023/01/20 04:58:12;;;;;;;3.67;2.80;;;2.80;99.90;;;;;;5073498;28;20252;-71
2023/01/20 05:00:38;;;;;;;4.17;3.10;;;2.80;99.90;;;;;;5060154;28;20269;-71
2023/01/20 05:03:06;;;;;;;4.83;3.07;;;2.80;99.90;;;;;;5056029;28;20225;-71
2023/01/20 05:05:32;;;;;;;3.17;2.87;;;2.80;99.90;;;;;;5073078;28;20191;-72
2023/01/20 05:08:01;;;;;;;4.33;3.30;;;2.90;99.90;;;;;;5073400;28;20208;-71
2023/01/20 05:10:27;;;;;;;4.50;3.40;;;2.80;99.90;;;;;;5056631;28;20253;-71
2023/01/20 05:12:52;;;;;;;3.83;3.03;;;2.80;99.90;;;;;;5056331;28;20259;-71
2023/01/20 05:15:18;;;;;;;3.90;3.30;;;2.80;99.90;;;;;;5056316;28;20197;-71
2023/01/20 05:17:44;;;;;;;4.07;3.03;;;2.80;99.90;;;;;;5056229;28;20204;-71
2023/01/20 05:20:10;;;;;;;3.57;2.80;;;2.80;99.90;;;;;;5058228;28;20360;-71
2023/01/20 05:22:37;;;;;;;4.93;3.50;;;2.80;99.90;;;;;;5056727;28;20173;-71
2023/01/20 05:25:03;;;;;;;4.20;3.00;;;2.80;99.90;;;;;;5055880;28;20264;-71
2023/01/20 05:27:33;;;;;;;3.70;2.83;;;2.80;99.90;;;;;;5072712;28;20246;-71
2023/01/20 05:29:59;;;;;;;4.73;3.60;;;2.80;99.90;;;;;;5071916;28;20236;-72
2023/01/20 05:32:27;;;;;;;5.03;3.60;;;2.80;99.90;;;;;;5072392;28;20430;-71
2023/01/20 05:34:52;;;;;;;4.83;3.30;;;2.90;99.90;;;;;;5056171;28;20181;-71
2023/01/20 05:37:18;;;;;;;4.90;2.93;;;2.80;99.90;;;;;;5056723;28;20208;-70
2023/01/20 05:39:44;;;;;;;4.67;3.00;;;2.90;99.90;;;;;;5057290;28;20184;-71
2023/01/20 05:42:09;;;;;;;5.43;3.20;;;2.90;99.90;;;;;;5055805;28;20177;-71
2023/01/20 05:44:37;;;;;;;5.30;3.03;;;2.90;99.90;;;;;;5072528;28;20197;-71
2023/01/20 05:47:05;;;;;;;4.00;2.97;;;2.90;99.90;;;;;;5072556;28;20234;-71
2023/01/20 05:49:32;;;;;;;4.17;3.07;;;2.90;99.90;;;;;;5072711;28;20197;-71
2023/01/20 05:51:58;;;;;;;4.90;3.70;;;2.90;99.90;;;;;;5072627;28;20169;-72
2023/01/20 05:54:25;;;;;;;6.03;3.50;;;2.90;99.90;;;;;;5071765;28;20184;-72
2023/01/20 05:56:51;;;;;;;4.10;2.97;;;2.90;99.90;;;;;;5055135;28;20201;-72
2023/01/20 05:59:18;;;;;;;3.80;2.83;;;2.90;99.90;;;;;;5053063;28;20268;-71
2023/01/20 06:01:46;;;;;;;3.80;3.00;;;2.90;99.90;;;;;;5052344;28;20201;-72
2023/01/20 06:04:16;;;;;;;7.63;3.33;;;2.90;99.90;;;;;;5071543;28;20196;-71
2023/01/20 06:06:45;;;;;;;3.97;3.10;;;2.90;99.90;;;;;;5054669;28;20193;-71
2023/01/20 06:09:10;;;;;;;3.90;2.87;;;2.90;99.90;;;;;;5054951;28;20235;-72
2023/01/20 06:11:36;;;;;;;3.70;2.93;;;2.90;99.90;;;;;;5055387;28;20177;-71
2023/01/20 06:14:01;;;;;;;4.47;3.57;;;2.90;99.90;;;;;;5054909;28;20204;-71
2023/01/20 06:16:30;;;;;;;3.97;2.90;;;2.90;99.90;;;;;;5055079;28;20181;-71
2023/01/20 06:18:56;;;;;;;4.13;3.00;;;2.90;99.90;;;;;;5079214;28;20192;-72
2023/01/20 06:21:22;;;;;;;3.87;2.87;;;3.00;99.90;;;;;;5069398;28;20181;-71
2023/01/20 06:23:48;;;;;;;4.73;3.33;;;3.00;99.90;;;;;;5055558;28;20197;-71
2023/01/20 06:26:16;;;;;;;3.70;2.97;;;2.90;99.90;;;;;;5071882;28;20169;-71
2023/01/20 06:28:41;;;;;;;3.97;2.80;;;3.00;99.90;;;;;;5072282;28;20223;-71
2023/01/20 06:31:10;;;;;;;4.50;3.17;;;3.10;99.90;;;;;;5071700;28;20220;-71
2023/01/20 06:33:36;;;;;;;5.30;3.07;;;3.00;99.90;;;;;;5072009;28;20204;-72
2023/01/20 06:36:03;;;;;;;4.00;2.83;;;3.00;99.90;;;;;;5071938;28;20212;-72
2023/01/20 06:38:33;;;;;;;4.60;3.00;;;3.00;99.90;;;;;;5054919;28;20246;-72
2023/01/20 06:41:04;;;;;;;4.90;3.37;;;3.00;99.90;;;;;;5071667;28;20165;-72
2023/01/20 06:43:32;;;;;;;4.10;2.70;;;3.10;99.90;;;;;;5047029;28;20225;-72
2023/01/20 06:46:09;;;;;;;4.60;3.20;;;3.00;99.90;;;;;;5053020;28;20261;-70
2023/01/20 06:48:35;;;;;;;4.70;3.50;;;3.00;99.90;;;;;;5071666;28;20223;-74
2023/01/20 06:51:09;;;;;;;4.57;3.43;;;3.00;99.90;;;;;;5054530;28;20181;-74
2023/01/20 06:53:36;;;;;;;4.67;3.40;;;3.10;99.90;;;;;;5054965;28;20226;-74
2023/01/20 06:56:08;;;;;;;5.27;3.53;;;3.10;99.90;;;;;;5054764;28;20197;-72
2023/01/20 06:58:36;;;;;;;4.73;3.13;;;3.10;99.90;;;;;;5054980;28;20536;-73
2023/01/20 07:01:17;;;;;;;4.83;3.20;;;3.10;99.90;;;;;;5070897;28;20197;-73
2023/01/20 07:03:43;;;;;;;3.87;3.17;;;3.10;99.90;;;;;;5071616;28;20169;-73
2023/01/20 07:06:38;;;;;;;3.87;3.17;;;3.20;99.90;;;;;;5054924;28;20168;-72
2023/01/20 07:09:06;;;;;;;4.63;3.10;;;3.10;99.90;;;;;;5048886;28;20180;-72
2023/01/20 07:11:39;;;;;;;3.87;3.00;;;3.10;99.90;;;;;;5079250;28;20182;-72
2023/01/20 07:14:05;;;;;;;3.60;2.73;;;3.10;99.90;;;;;;5070231;28;20224;-72
2023/01/20 07:16:33;;;;;;;4.80;3.50;;;3.00;99.90;;;;;;5054025;28;20169;-72
2023/01/20 07:19:02;;;;;;;3.80;3.20;;;3.00;99.90;;;;;;5070897;28;20204;-72
2023/01/20 07:21:28;;;;;;;5.27;3.43;;;3.00;99.90;;;;;;5034329;28;20182;-72
2023/01/20 07:23:54;;;;;;;6.97;3.90;;;3.00;99.90;;;;;;5051626;28;20185;-71
2023/01/20 07:26:22;;;;;;;6.30;4.10;;;2.90;99.90;;;;;;5041390;28;20173;-72
2023/01/20 07:28:47;;;;;;;5.27;3.87;;;2.90;99.90;;;;;;5054369;28;20169;-71
2023/01/20 07:31:19;;;;;;;4.37;3.53;;;2.90;99.90;;;;;;5053930;28;20299;-72
2023/01/20 07:33:45;;;;;;;4.87;3.70;;;2.90;99.90;;;;;;5054192;28;20169;-72
2023/01/20 07:36:12;;;;;;;4.40;3.30;;;2.90;99.90;;;;;;5068118;28;20216;-73
2023/01/20 07:38:38;;;;;;;4.57;3.50;;;2.80;99.90;;;;;;5034603;28;20216;-73
2023/01/20 07:41:14;;;;;;;6.27;3.53;;;2.90;99.90;;;;;;5047477;28;20177;-73
2023/01/20 07:43:46;;;;;;;5.67;3.20;;;2.90;99.90;;;;;;5054278;28;20266;-74
2023/01/20 07:46:15;;;;;;;5.20;3.60;;;2.90;99.90;;;;;;5054346;28;20184;-74
2023/01/20 07:48:43;;;;;;;5.37;3.60;;;3.00;99.90;;;;;;5071000;28;20177;-74
2023/01/20 07:51:11;;;;;;;5.20;3.60;;;2.90;99.90;;;;;;5071130;28;20197;-74
2023/01/20 07:53:45;;;;;;;5.30;3.43;;;2.90;99.90;;;;;;5070870;28;20178;-74
2023/01/20 07:56:15;;;;;;;5.33;3.70;;;2.90;99.90;;;;;;5061029;28;20270;-74
2023/01/20 07:58:44;;;;;;;3.80;3.13;;;2.90;99.90;;;;;;5067219;28;20206;-74
2023/01/20 08:01:15;;;;;;;5.37;3.40;;;2.80;99.90;;;;;;5048873;28;20173;-74
2023/01/20 08:03:43;;;;;;;5.07;3.67;;;2.90;99.90;;;;;;5053282;28;20207;-74
2023/01/20 08:06:16;;;;;;;4.40;3.17;;;2.90;99.90;;;;;;5066749;28;20173;-74
2023/01/20 08:08:42;;;;;;;3.87;3.20;;;3.10;99.90;;;;;;5035926;28;20178;-74
2023/01/20 08:11:09;;;;;;;4.70;3.30;;;2.80;99.90;;;;;;5070408;28;20173;-73
2023/01/20 08:13:34;;;;;;;4.47;3.43;;;2.80;99.90;;;;;;5057887;28;20177;-73
2023/01/20 08:16:15;;;;;;;4.37;3.40;;;2.80;99.90;;;;;;5050663;28;20204;-72
2023/01/20 08:18:42;;;;;;;5.03;3.47;;;2.80;99.90;;;;;;5041552;28;20193;-73
2023/01/20 08:21:19;;;;;;;4.67;3.50;;;2.80;99.90;;;;;;5069400;28;20174;-73
2023/01/20 08:23:55;;;;;;;5.07;3.27;;;2.70;99.90;;;;;;5070137;28;20161;-73
2023/01/20 08:26:55;;;;;;;4.67;3.40;;;2.70;99.90;;;;;;5066755;28;20197;-73
2023/01/20 08:29:21;;;;;;;5.57;3.73;;;2.70;99.90;;;;;;5071528;28;20174;-74
2023/01/20 08:31:49;;;;;;;4.60;3.27;;;2.70;99.90;;;;;;5073739;28;20185;-74
2023/01/20 08:34:17;;;;;;;4.83;3.60;;;2.70;99.90;;;;;;5071104;28;20197;-74
2023/01/20 08:36:44;;;;;;;5.90;3.93;;;2.70;99.90;;;;;;5056445;28;20188;-74
2023/01/20 08:39:14;;;;;;;4.43;3.67;;;2.80;99.90;;;;;;5056883;28;20173;-73
2023/01/20 08:41:42;;;;;;;5.23;3.70;;;2.70;99.90;;;;;;5056717;28;20207;-72
2023/01/20 08:44:09;;;;;;;4.53;3.37;;;2.70;99.90;;;;;;5056291;28;20174;-73
2023/01/20 08:46:39;;;;;;;4.37;3.30;;;2.70;99.90;;;;;;5058970;28;20174;-73
2023/01/20 08:50:00;;;;;;;4.73;3.20;;;3.00;99.90;;;;;;5066959;28;20322;-76
2023/01/20 08:52:30;;;;;;;4.27;3.33;;;2.80;99.90;;;;;;5015376;28;20191;-74
2023/01/20 08:55:20;;;;;;;5.90;3.60;;;2.90;99.90;;;;;;5018141;28;20232;-74
2023/01/20 08:57:46;;;;;;;4.10;3.37;;;2.80;99.90;;;;;;5051153;28;20243;-75
2023/01/20 09:00:15;;;;;;;5.10;3.53;;;3.00;99.90;;;;;;5049821;28;20193;-73
2023/01/20 09:06:15;;;;;;;4.70;3.50;;;2.90;99.90;;;;;;5039993;28;20170;-74
2023/01/20 09:09:38;;;;;;;;;;;;;;;;;;;;;
2023/01/20 09:12:48;;;;;;;5.10;3.80;;;2.90;99.90;;;;;;5007996;28;20221;-74
2023/01/20 09:15:14;;;;;;;6.23;4.10;;;3.00;99.90;;;;;;5003486;28;20209;-74
2023/01/20 09:17:57;;;;;;;5.40;3.90;;;3.10;99.90;;;;;;5060304;28;20231;-73
2023/01/20 09:20:25;;;;;;;6.73;3.87;;;3.30;99.90;;;;;;5049304;28;20179;-74
2023/01/20 09:26:40;;;;;;;5.63;3.77;;;4.10;99.90;;;;;;4977741;28;20223;-74
2023/01/20 09:29:54;;;;;;;5.27;4.00;;;4.30;99.90;;;;;;5045937;28;20173;-75
2023/01/20 09:35:42;;;;;;;7.07;4.53;;;5.30;99.90;;;;;;5041594;28;20196;-74
2023/01/20 09:54:02;;;;;;;5.07;4.07;;;6.60;99.90;;;;;;5053563;28;20176;-74
2023/01/20 09:56:34;;;;;;;6.27;4.53;;;6.60;99.90;;;;;;5054536;28;20166;-73
2023/01/20 09:59:18;;;;;;;5.67;4.40;;;6.50;99.90;;;;;;5057793;28;20254;-73
2023/01/20 10:02:10;;;;;;;5.63;4.17;;;6.40;99.90;;;;;;5058799;28;20182;-74
2023/01/20 10:04:45;;;;;;;5.67;4.23;;;6.30;99.90;;;;;;5053470;28;20232;-74
2023/01/20 10:07:18;;;;;;;6.73;4.70;;;6.20;99.90;;;;;;5044632;28;20209;-74
2023/01/20 10:09:53;;;;;;;5.87;4.27;;;6.10;99.90;;;;;;5070235;28;20324;-73
2023/01/20 10:12:44;;;;;;;5.87;4.07;;;6.10;99.90;;;;;;5051479;28;20173;-75
2023/01/20 10:15:21;;;;;;;5.97;4.60;;;5.90;99.90;;;;;;5071535;28;20180;-74
2023/01/20 10:18:03;;;;;;;5.83;4.43;;;5.90;99.90;;;;;;5071229;28;20212;-74
2023/01/20 10:20:45;;;;;;;5.93;4.57;;;5.70;99.90;;;;;;5051689;28;20247;-73
2023/01/20 10:23:38;;;;;;;4.23;3.83;;;5.60;99.90;;;;;;5071418;28;20224;-72
2023/01/20 10:26:19;;;;;;;5.37;4.03;;;5.50;99.90;;;;;;5071237;28;20173;-73
2023/01/20 10:28:54;;;;;;;5.73;4.37;;;5.50;99.90;;;;;;5071475;28;20267;-73
2023/01/20 10:31:25;;;;;;;5.23;3.97;;;5.40;99.90;;;;;;5067996;28;20199;-73
2023/01/20 10:33:57;;;;;;;6.13;4.50;;;5.40;99.90;;;;;;5035077;28;20277;-73
2023/01/20 10:36:30;;;;;;;5.40;4.33;;;5.30;99.90;;;;;;5052114;28;20222;-74
2023/01/20 10:39:19;;;;;;;5.57;4.20;;;5.30;99.90;;;;;;5071636;28;20209;-73
2023/01/20 10:42:01;;;;;;;5.83;4.30;;;5.30;99.90;;;;;;5071312;28;20168;-74
2023/01/20 10:44:26;;;;;;;8.10;4.30;;;5.30;99.90;;;;;;5070588;28;20174;-75
2023/01/20 10:47:13;;;;;;;4.67;4.00;;;5.30;99.90;;;;;;5054604;28;20173;-75
2023/01/20 10:49:39;;;;;;;5.80;3.60;;;5.40;99.90;;;;;;5051206;28;20180;-73
2023/01/20 10:52:07;;;;;;;5.97;4.20;;;5.40;99.90;;;;;;5054080;28;20207;-75
2023/01/20 10:54:58;;;;;;;6.00;4.60;;;5.50;99.90;;;;;;5053455;28;20196;-76
2023/01/20 10:57:26;;;;;;;5.40;3.80;;;5.70;99.90;;;;;;5049835;28;20283;-75
2023/01/20 10:59:58;;;;;;;5.27;4.10;;;5.80;99.90;;;;;;5050242;28;20216;-73
2023/01/20 11:02:30;;;;;;;6.83;4.10;;;5.90;99.90;;;;;;5050975;28;20201;-74
2023/01/20 11:05:01;;;;;;;5.90;3.97;;;6.00;99.90;;;;;;5049387;28;20245;-74
2023/01/20 11:07:31;;;;;;;4.90;3.97;;;6.00;99.90;;;;;;5069509;28;20260;-73
2023/01/20 11:10:12;;;;;;;8.47;4.30;;;5.90;99.90;;;;;;5053503;28;20192;-73
2023/01/20 11:12:41;;;;;;;5.93;4.00;;;5.90;99.90;;;;;;5070699;28;20200;-74
2023/01/20 11:15:17;;;;;;;6.47;4.17;;;5.90;99.90;;;;;;5053936;28;20196;-74
2023/01/20 11:17:43;;;;;;;7.37;4.60;;;5.90;99.90;;;;;;5052500;28;20224;-75
2023/01/20 11:20:18;;;;;;;5.93;4.60;;;5.80;99.90;;;;;;5054263;28;20173;-75
2023/01/20 11:22:48;;;;;;;5.80;3.93;;;5.80;99.90;;;;;;5070516;28;20212;-74
2023/01/20 11:25:25;;;;;;;6.80;4.17;;;5.70;99.90;;;;;;5065046;28;20188;-74
2023/01/20 11:27:51;;;;;;;5.60;4.07;;;5.60;99.90;;;;;;5069866;28;20251;-74
2023/01/20 11:30:23;;;;;;;5.47;4.17;;;5.50;99.90;;;;;;5069947;28;20282;-74
2023/01/20 11:33:22;;;;;;;6.03;4.87;;;5.50;99.90;;;;;;5070336;28;20177;-75
2023/01/20 11:36:22;;;;;;;7.77;4.57;;;5.50;99.90;;;;;;5070320;28;20180;-74
2023/01/20 11:38:50;;;;;;;6.97;4.63;;;5.40;99.90;;;;;;5070102;28;20201;-75
2023/01/20 11:41:24;;;;;;;5.20;4.17;;;5.40;99.90;;;;;;5070207;28;20242;-75
2023/01/20 11:43:54;;;;;;;7.30;5.00;;;5.30;99.90;;;;;;5070064;28;20238;-75
2023/01/20 11:46:25;;;;;;;6.13;4.83;;;5.40;99.90;;;;;;5053078;28;20189;-73
2023/01/20 11:49:15;;;;;;;6.07;4.73;;;5.30;99.90;;;;;;5052422;28;20320;-73
2023/01/20 11:51:54;;;;;;;6.73;4.90;;;5.30;99.90;;;;;;5068811;28;20270;-72
2023/01/20 11:54:28;;;;;;;5.50;4.50;;;5.30;99.90;;;;;;5053459;28;20195;-73
2023/01/20 11:57:06;;;;;;;6.10;4.70;;;5.30;99.90;;;;;;5070206;28;20180;-74
2023/01/20 11:59:34;;;;;;;7.03;5.17;;;5.20;99.90;;;;;;5069906;28;20203;-73
2023/01/20 12:02:19;;;;;;;8.03;4.80;;;5.20;99.90;;;;;;5065203;28;20204;-74
2023/01/20 12:04:56;;;;;;;6.20;5.00;;;5.30;99.90;;;;;;5063209;28;20254;-74
2023/01/20 12:07:40;;;;;;;6.33;4.60;;;5.20;99.90;;;;;;5038220;28;20228;-73
2023/01/20 12:10:15;;;;;;;6.77;5.00;;;5.20;99.90;;;;;;5040526;28;20181;-72
2023/01/20 12:13:01;;;;;;;6.17;4.43;;;5.10;99.90;;;;;;5053843;28;20189;-73
2023/01/20 12:15:32;;;;;;;5.93;4.47;;;5.10;99.90;;;;;;5065014;28;20197;-73
2023/01/20 12:18:04;;;;;;;6.13;4.40;;;5.10;99.90;;;;;;5057986;28;20196;-72
2023/01/20 12:20:47;;;;;;;6.00;5.00;;;5.10;99.90;;;;;;5053022;28;20253;-73
2023/01/20 12:23:32;;;;;;;7.77;4.87;;;5.10;99.90;;;;;;5035592;28;20194;-73
2023/01/20 12:26:05;;;;;;;6.97;4.60;;;5.10;99.90;;;;;;5051657;28;20231;-74
2023/01/20 12:28:37;;;;;;;8.80;4.90;;;5.00;99.90;;;;;;5052957;28;20193;-75
2023/01/20 12:31:08;;;;;;;5.20;4.17;;;5.00;99.90;;;;;;5052604;28;20181;-74
2023/01/20 12:33:44;;;;;;;5.20;4.40;;;5.10;99.90;;;;;;5052423;28;20268;-75
2023/01/20 12:36:38;;;;;;;6.87;5.00;;;4.90;99.90;;;;;;5050220;28;20277;-73
2023/01/20 12:39:04;;;;;;;6.43;4.87;;;4.90;99.90;;;;;;5017074;28;20217;-73
2023/01/20 12:42:04;;;;;;;6.70;4.90;;;5.10;99.90;;;;;;5069190;28;20208;-74
2023/01/20 12:44:50;;;;;;;7.50;5.07;;;4.80;99.90;;;;;;5072613;28;20176;-74
2023/01/20 12:47:27;;;;;;;6.50;4.53;;;4.80;99.90;;;;;;5066524;28;20193;-74
2023/01/20 12:50:21;;;;;;;6.70;4.53;;;4.70;99.90;;;;;;5052034;28;20268;-74
2023/01/20 12:52:56;;;;;;;6.23;4.37;;;4.60;99.90;;;;;;5052242;28;20373;-75
2023/01/20 12:55:36;;;;;;;5.00;3.97;;;4.50;99.90;;;;;;5067556;28;20188;-74
2023/01/20 12:58:15;;;;;;;5.20;4.13;;;4.50;99.90;;;;;;5046066;28;20197;-75
2023/01/20 13:00:52;;;;;;;7.43;4.87;;;4.70;99.90;;;;;;5041619;28;20212;-74
2023/01/20 13:03:53;;;;;;;6.83;5.07;;;4.40;99.90;;;;;;5055616;28;20181;-73
2023/01/20 13:06:30;;;;;;;7.40;4.63;;;4.40;99.90;;;;;;5043135;28;20192;-74
2023/01/20 13:09:46;;;;;;;8.97;6.20;;;4.40;99.90;;;;;;5061719;28;20210;-71
2023/01/20 13:12:20;;;;;;;7.17;5.27;;;4.40;99.90;;;;;;5008963;28;20401;-74
2023/01/20 13:14:54;;;;;;;6.70;4.70;;;4.30;99.90;;;;;;5045941;28;20253;-73
2023/01/20 13:17:46;;;;;;;7.20;4.93;;;4.30;99.90;;;;;;5055201;28;20213;-74
2023/01/20 13:20:22;;;;;;;6.67;4.97;;;4.30;99.90;;;;;;5070406;28;20178;-74
2023/01/20 13:22:50;;;;;;;5.87;4.83;;;4.40;99.90;;;;;;5072383;28;20173;-73
2023/01/20 13:25:17;;;;;;;6.20;4.20;;;4.20;99.90;;;;;;5054718;28;20177;-73
2023/01/20 13:27:46;;;;;;;6.70;4.63;;;4.10;99.90;;;;;;5072638;28;20231;-72
2023/01/20 13:30:35;;;;;;;7.97;5.17;;;4.10;99.90;;;;;;5072607;28;20185;-75
2023/01/20 13:33:12;;;;;;;6.33;4.63;;;4.10;99.90;;;;;;5049508;28;20185;-73
2023/01/20 13:35:47;;;;;;;6.90;4.50;;;4.00;99.90;;;;;;5070919;28;20181;-73
2023/01/20 13:38:24;;;;;;;7.00;5.07;;;4.00;99.90;;;;;;5053820;28;20209;-74
2023/01/20 13:40:55;;;;;;;6.83;4.87;;;4.00;99.90;;;;;;5071499;28;20188;-74
2023/01/20 13:43:24;;;;;;;6.50;4.50;;;4.00;99.90;;;;;;5072234;28;20245;-73
2023/01/20 14:04:45;;;;;;;4.33;3.50;;;3.40;99.90;;;;;;4868152;29;20290;-72
2023/01/20 14:14:21;;;;;;;4.40;3.50;;;3.30;99.90;;;;;;5004082;28;20190;-74
2023/01/20 14:16:49;;;;;;;5.10;3.57;;;3.80;99.90;;;;;;4955098;29;20188;-74
2023/01/20 14:19:51;;;;;;;5.50;4.00;;;3.30;99.90;;;;;;4972260;28;20287;-73